sensor_id;sensor_type;location;lat;lon;timestamp;pressure;altitude;pressure_sealevel;temperature;humidity
40794;BME280;26502;51.886;15.604;2023-04-01T00:01:38;98820.88;;;8.26;80.99
40794;BME280;26502;51.886;15.604;2023-04-01T00:06:44;98816.84;;;8.26;80.99
40794;BME280;26502;51.886;15.604;2023-04-01T00:11:52;98818.66;;;8.21;81.00
40794;BME280;26502;51.886;15.604;2023-04-01T00:16:59;98817.50;;;8.16;81.08
40794;BME280;26502;51.886;15.604;2023-04-01T00:22:05;98820.73;;;8.16;81.38
40794;BME280;26502;51.886;15.604;2023-04-01T00:27:12;98816.83;;;8.19;81.52
40794;BME280;26502;51.886;15.604;2023-04-01T00:32:18;98817.13;;;8.20;81.58
40794;BME280;26502;51.886;15.604;2023-04-01T00:37:25;98812.03;;;8.19;81.64
40794;BME280;26502;51.886;15.604;2023-04-01T00:42:31;98807.84;;;8.19;81.51
40794;BME280;26502;51.886;15.604;2023-04-01T00:47:38;98806.75;;;8.13;81.73
40794;BME280;26502;51.886;15.604;2023-04-01T00:52:45;98805.35;;;8.12;81.87
40794;BME280;26502;51.886;15.604;2023-04-01T00:57:52;98802.30;;;8.13;81.97
40794;BME280;26502;51.886;15.604;2023-04-01T01:02:59;98801.39;;;8.17;82.15
40794;BME280;26502;51.886;15.604;2023-04-01T01:08:12;98800.05;;;8.22;82.11
40794;BME280;26502;51.886;15.604;2023-04-01T01:13:25;98798.37;;;8.20;82.12
40794;BME280;26502;51.886;15.604;2023-04-01T01:18:38;98793.03;;;8.15;82.09
40794;BME280;26502;51.886;15.604;2023-04-01T01:24:13;98784.77;;;8.13;82.39
40794;BME280;26502;51.886;15.604;2023-04-01T01:35:20;98785.90;;;8.19;82.58
40794;BME280;26502;51.886;15.604;2023-04-01T01:40:28;98786.59;;;8.23;82.63
40794;BME280;26502;51.886;15.604;2023-04-01T01:45:42;98783.48;;;8.24;82.65
40794;BME280;26502;51.886;15.604;2023-04-01T01:50:52;98784.71;;;8.25;82.57
40794;BME280;26502;51.886;15.604;2023-04-01T01:55:59;98786.70;;;8.23;82.83
40794;BME280;26502;51.886;15.604;2023-04-01T02:01:07;98790.61;;;8.23;82.70
40794;BME280;26502;51.886;15.604;2023-04-01T02:06:18;98798.69;;;8.21;83.00
40794;BME280;26502;51.886;15.604;2023-04-01T02:11:29;98800.38;;;8.26;82.95
40794;BME280;26502;51.886;15.604;2023-04-01T02:16:40;98790.65;;;8.26;83.07
40794;BME280;26502;51.886;15.604;2023-04-01T02:21:51;98789.74;;;8.27;83.16
40794;BME280;26502;51.886;15.604;2023-04-01T02:27:00;98789.57;;;8.23;83.46
40794;BME280;26502;51.886;15.604;2023-04-01T02:32:07;98787.90;;;8.21;83.80
40794;BME280;26502;51.886;15.604;2023-04-01T02:37:15;98792.67;;;8.21;83.89
40794;BME280;26502;51.886;15.604;2023-04-01T02:42:21;98792.23;;;8.20;84.09
40794;BME280;26502;51.886;15.604;2023-04-01T02:47:30;98795.65;;;8.18;84.37
40794;BME280;26502;51.886;15.604;2023-04-01T02:52:36;98798.30;;;8.18;84.45
40794;BME280;26502;51.886;15.604;2023-04-01T02:57:43;98801.02;;;8.17;84.72
40794;BME280;26502;51.886;15.604;2023-04-01T03:02:49;98805.33;;;8.19;84.65
40794;BME280;26502;51.886;15.604;2023-04-01T03:07:55;98807.45;;;8.20;84.83
40794;BME280;26502;51.886;15.604;2023-04-01T03:13:02;98811.14;;;8.19;84.95
40794;BME280;26502;51.886;15.604;2023-04-01T03:18:08;98808.30;;;8.20;85.04
40794;BME280;26502;51.886;15.604;2023-04-01T03:23:16;98809.04;;;8.22;85.03
40794;BME280;26502;51.886;15.604;2023-04-01T03:28:23;98809.24;;;8.29;85.21
40794;BME280;26502;51.886;15.604;2023-04-01T03:33:30;98814.02;;;8.36;84.91
40794;BME280;26502;51.886;15.604;2023-04-01T03:38:37;98816.69;;;8.35;85.04
40794;BME280;26502;51.886;15.604;2023-04-01T03:43:44;98816.48;;;8.39;85.08
40794;BME280;26502;51.886;15.604;2023-04-01T03:48:51;98819.05;;;8.41;84.88
40794;BME280;26502;51.886;15.604;2023-04-01T03:53:57;98821.14;;;8.41;84.89
40794;BME280;26502;51.886;15.604;2023-04-01T03:59:06;98824.48;;;8.42;84.91
40794;BME280;26502;51.886;15.604;2023-04-01T04:04:13;98828.31;;;8.40;84.77
40794;BME280;26502;51.886;15.604;2023-04-01T04:09:20;98832.39;;;8.39;84.86
40794;BME280;26502;51.886;15.604;2023-04-01T04:14:27;98837.02;;;8.42;84.94
40794;BME280;26502;51.886;15.604;2023-04-01T04:19:34;98846.84;;;8.44;84.86
40794;BME280;26502;51.886;15.604;2023-04-01T04:24:42;98849.27;;;8.45;85.05
40794;BME280;26502;51.886;15.604;2023-04-01T04:29:50;98856.21;;;8.48;84.93
40794;BME280;26502;51.886;15.604;2023-04-01T04:34:57;98858.95;;;8.50;85.03
40794;BME280;26502;51.886;15.604;2023-04-01T04:40:04;98861.05;;;8.50;84.96
40794;BME280;26502;51.886;15.604;2023-04-01T04:45:12;98863.55;;;8.49;84.89
40794;BME280;26502;51.886;15.604;2023-04-01T04:50:23;98868.30;;;8.47;84.84
40794;BME280;26502;51.886;15.604;2023-04-01T04:55:30;98873.55;;;8.48;85.16
40794;BME280;26502;51.886;15.604;2023-04-01T05:01:09;98874.44;;;8.51;85.16
40794;BME280;26502;51.886;15.604;2023-04-01T05:06:17;98878.50;;;8.51;85.24
40794;BME280;26502;51.886;15.604;2023-04-01T05:11:24;98880.81;;;8.54;85.23
40794;BME280;26502;51.886;15.604;2023-04-01T05:16:32;98885.28;;;8.60;85.14
40794;BME280;26502;51.886;15.604;2023-04-01T05:21:39;98889.25;;;8.62;85.15
40794;BME280;26502;51.886;15.604;2023-04-01T05:26:46;98891.84;;;8.63;85.19
40794;BME280;26502;51.886;15.604;2023-04-01T05:31:53;98897.70;;;8.66;85.09
40794;BME280;26502;51.886;15.604;2023-04-01T05:36:59;98903.85;;;8.64;85.24
40794;BME280;26502;51.886;15.604;2023-04-01T05:42:06;98904.90;;;8.68;85.35
40794;BME280;26502;51.886;15.604;2023-04-01T05:47:13;98907.74;;;8.71;85.41
40794;BME280;26502;51.886;15.604;2023-04-01T05:52:19;98912.02;;;8.80;85.44
40794;BME280;26502;51.886;15.604;2023-04-01T05:57:26;98916.91;;;8.88;85.27
40794;BME280;26502;51.886;15.604;2023-04-01T06:02:32;98917.52;;;8.89;85.21
40794;BME280;26502;51.886;15.604;2023-04-01T06:07:38;98921.16;;;8.95;85.34
40794;BME280;26502;51.886;15.604;2023-04-01T06:12:57;98928.23;;;9.01;85.23
40794;BME280;26502;51.886;15.604;2023-04-01T06:23:53;98937.91;;;9.09;85.26
40794;BME280;26502;51.886;15.604;2023-04-01T06:29:23;98942.94;;;9.11;85.22
40794;BME280;26502;51.886;15.604;2023-04-01T06:34:54;98948.23;;;9.15;85.11
40794;BME280;26502;51.886;15.604;2023-04-01T06:40:24;98949.02;;;9.16;85.25
40794;BME280;26502;51.886;15.604;2023-04-01T06:45:39;98949.98;;;9.21;85.27
40794;BME280;26502;51.886;15.604;2023-04-01T06:51:15;98952.66;;;9.24;85.07
40794;BME280;26502;51.886;15.604;2023-04-01T06:56:45;98959.58;;;9.24;85.26
40794;BME280;26502;51.886;15.604;2023-04-01T07:02:01;98963.89;;;9.30;85.14
40794;BME280;26502;51.886;15.604;2023-04-01T07:07:14;98960.49;;;9.30;85.14
40794;BME280;26502;51.886;15.604;2023-04-01T07:12:40;98966.30;;;9.34;85.12
40794;BME280;26502;51.886;15.604;2023-04-01T07:18:13;98972.67;;;9.34;85.09
40794;BME280;26502;51.886;15.604;2023-04-01T07:23:25;98974.97;;;9.41;85.24
40794;BME280;26502;51.886;15.604;2023-04-01T07:28:44;98979.95;;;9.41;84.91
40794;BME280;26502;51.886;15.604;2023-04-01T07:34:12;98984.30;;;9.42;85.12
40794;BME280;26502;51.886;15.604;2023-04-01T07:39:28;98989.89;;;9.40;85.26
40794;BME280;26502;51.886;15.604;2023-04-01T07:44:47;98998.14;;;9.42;85.35
40794;BME280;26502;51.886;15.604;2023-04-01T07:50:05;98997.99;;;9.45;85.71
40794;BME280;26502;51.886;15.604;2023-04-01T07:55:20;99002.79;;;9.54;85.55
40794;BME280;26502;51.886;15.604;2023-04-01T08:00:30;99001.96;;;9.53;85.48
40794;BME280;26502;51.886;15.604;2023-04-01T08:05:49;99007.29;;;9.53;85.51
40794;BME280;26502;51.886;15.604;2023-04-01T08:11:08;99012.27;;;9.69;85.81
40794;BME280;26502;51.886;15.604;2023-04-01T08:16:44;99017.28;;;9.71;85.45
40794;BME280;26502;51.886;15.604;2023-04-01T08:21:57;99015.53;;;9.80;86.00
40794;BME280;26502;51.886;15.604;2023-04-01T08:27:09;99019.52;;;10.00;85.99
40794;BME280;26502;51.886;15.604;2023-04-01T08:32:20;99026.81;;;10.19;85.76
40794;BME280;26502;51.886;15.604;2023-04-01T08:37:34;99024.98;;;10.29;85.34
40794;BME280;26502;51.886;15.604;2023-04-01T08:42:57;99032.79;;;10.23;84.99
40794;BME280;26502;51.886;15.604;2023-04-01T08:53:41;99038.16;;;10.19;85.37
40794;BME280;26502;51.886;15.604;2023-04-01T08:59:02;99039.32;;;10.24;85.32
40794;BME280;26502;51.886;15.604;2023-04-01T09:04:29;99042.73;;;10.14;85.19
40794;BME280;26502;51.886;15.604;2023-04-01T09:09:52;99043.21;;;10.24;85.52
40794;BME280;26502;51.886;15.604;2023-04-01T09:21:10;99044.25;;;10.37;85.28
40794;BME280;26502;51.886;15.604;2023-04-01T09:32:14;99051.90;;;10.89;85.15
40794;BME280;26502;51.886;15.604;2023-04-01T09:37:47;99055.63;;;10.95;85.16
40794;BME280;26502;51.886;15.604;2023-04-01T09:43:27;99063.68;;;11.26;85.43
40794;BME280;26502;51.886;15.604;2023-04-01T09:48:46;99066.65;;;11.30;84.72
40794;BME280;26502;51.886;15.604;2023-04-01T09:54:09;99072.45;;;11.34;84.75
40794;BME280;26502;51.886;15.604;2023-04-01T10:05:45;99076.40;;;11.54;84.53
40794;BME280;26502;51.886;15.604;2023-04-01T10:11:45;99079.50;;;11.61;84.15
40794;BME280;26502;51.886;15.604;2023-04-01T10:28:31;99093.21;;;11.44;83.70
40794;BME280;26502;51.886;15.604;2023-04-01T10:39:55;99087.57;;;11.66;83.85
40794;BME280;26502;51.886;15.604;2023-04-01T10:51:17;99082.15;;;11.81;83.36
40794;BME280;26502;51.886;15.604;2023-04-01T10:56:40;99086.88;;;11.85;83.00
40794;BME280;26502;51.886;15.604;2023-04-01T11:02:36;99088.10;;;11.83;83.13
40794;BME280;26502;51.886;15.604;2023-04-01T11:13:43;99094.87;;;11.86;82.74
40794;BME280;26502;51.886;15.604;2023-04-01T11:19:14;99097.30;;;11.83;82.47
40794;BME280;26502;51.886;15.604;2023-04-01T11:24:47;99095.26;;;11.82;82.44
40794;BME280;26502;51.886;15.604;2023-04-01T11:30:24;99095.44;;;11.88;82.05
40794;BME280;26502;51.886;15.604;2023-04-01T11:35:47;99096.58;;;11.87;81.94
40794;BME280;26502;51.886;15.604;2023-04-01T11:41:09;99098.57;;;11.89;81.99
40794;BME280;26502;51.886;15.604;2023-04-01T11:46:46;99099.82;;;12.09;81.68
40794;BME280;26502;51.886;15.604;2023-04-01T11:52:10;99107.34;;;12.25;81.54
40794;BME280;26502;51.886;15.604;2023-04-01T11:57:38;99107.52;;;12.55;81.78
40794;BME280;26502;51.886;15.604;2023-04-01T12:03:05;99115.50;;;12.80;81.48
40794;BME280;26502;51.886;15.604;2023-04-01T12:08:25;99129.17;;;12.73;80.91
40794;BME280;26502;51.886;15.604;2023-04-01T12:13:42;99132.79;;;12.47;80.33
40794;BME280;26502;51.886;15.604;2023-04-01T12:18:53;99132.65;;;12.58;80.58
40794;BME280;26502;51.886;15.604;2023-04-01T12:30:00;99137.59;;;12.75;79.96
40794;BME280;26502;51.886;15.604;2023-04-01T12:35:28;99138.13;;;12.83;80.10
40794;BME280;26502;51.886;15.604;2023-04-01T12:41:00;99140.02;;;12.95;80.01
40794;BME280;26502;51.886;15.604;2023-04-01T12:46:13;99146.21;;;12.68;79.57
40794;BME280;26502;51.886;15.604;2023-04-01T12:57:07;99163.39;;;12.39;79.59
40794;BME280;26502;51.886;15.604;2023-04-01T13:02:30;99170.81;;;12.29;79.44
40794;BME280;26502;51.886;15.604;2023-04-01T13:08:00;99174.77;;;12.23;79.55
40794;BME280;26502;51.886;15.604;2023-04-01T13:13:39;99178.63;;;12.21;79.48
40794;BME280;26502;51.886;15.604;2023-04-01T13:18:54;99187.23;;;12.14;79.51
40794;BME280;26502;51.886;15.604;2023-04-01T13:24:11;99190.23;;;12.03;79.43
40794;BME280;26502;51.886;15.604;2023-04-01T13:29:27;99199.11;;;12.00;79.39
40794;BME280;26502;51.886;15.604;2023-04-01T13:34:44;99210.17;;;11.94;79.36
40794;BME280;26502;51.886;15.604;2023-04-01T13:40:02;99217.21;;;11.98;79.62
40794;BME280;26502;51.886;15.604;2023-04-01T13:45:15;99223.30;;;11.94;79.40
40794;BME280;26502;51.886;15.604;2023-04-01T13:50:31;99225.55;;;11.86;79.20
40794;BME280;26502;51.886;15.604;2023-04-01T13:55:51;99226.41;;;11.75;79.15
40794;BME280;26502;51.886;15.604;2023-04-01T14:01:07;99229.11;;;11.75;79.22
40794;BME280;26502;51.886;15.604;2023-04-01T14:06:27;99237.70;;;11.82;79.06
40794;BME280;26502;51.886;15.604;2023-04-01T14:11:42;99245.50;;;11.74;78.83
40794;BME280;26502;51.886;15.604;2023-04-01T14:22:37;99256.02;;;11.53;78.94
40794;BME280;26502;51.886;15.604;2023-04-01T14:27:56;99259.87;;;11.54;79.18
40794;BME280;26502;51.886;15.604;2023-04-01T14:33:18;99265.07;;;11.44;79.19
40794;BME280;26502;51.886;15.604;2023-04-01T14:38:32;99274.35;;;11.24;79.24
40794;BME280;26502;51.886;15.604;2023-04-01T14:43:50;99283.11;;;11.08;79.32
40794;BME280;26502;51.886;15.604;2023-04-01T14:49:04;99289.05;;;11.01;79.37
40794;BME280;26502;51.886;15.604;2023-04-01T14:54:15;99293.38;;;10.99;79.54
40794;BME280;26502;51.886;15.604;2023-04-01T14:59:30;99299.73;;;10.87;79.40
40794;BME280;26502;51.886;15.604;2023-04-01T15:04:54;99309.86;;;10.74;79.40
40794;BME280;26502;51.886;15.604;2023-04-01T15:10:09;99318.27;;;10.60;79.40
40794;BME280;26502;51.886;15.604;2023-04-01T15:15:32;99323.54;;;10.58;79.61
40794;BME280;26502;51.886;15.604;2023-04-01T15:21:10;99329.03;;;10.55;79.57
40794;BME280;26502;51.886;15.604;2023-04-01T15:26:30;99330.19;;;10.53;79.54
40794;BME280;26502;51.886;15.604;2023-04-01T15:31:44;99325.80;;;10.49;79.70
40794;BME280;26502;51.886;15.604;2023-04-01T15:37:02;99328.98;;;10.39;79.75
40794;BME280;26502;51.886;15.604;2023-04-01T15:42:39;99335.17;;;10.36;79.85
40794;BME280;26502;51.886;15.604;2023-04-01T15:47:58;99341.74;;;10.32;79.74
40794;BME280;26502;51.886;15.604;2023-04-01T15:58:49;99357.20;;;10.18;79.87
40794;BME280;26502;51.886;15.604;2023-04-01T16:04:14;99364.68;;;10.14;79.99
40794;BME280;26502;51.886;15.604;2023-04-01T16:09:37;99370.34;;;10.15;79.99
40794;BME280;26502;51.886;15.604;2023-04-01T16:14:58;99378.50;;;10.04;79.84
40794;BME280;26502;51.886;15.604;2023-04-01T16:20:19;99385.00;;;9.88;79.98
40794;BME280;26502;51.886;15.604;2023-04-01T16:25:33;99396.33;;;9.81;80.08
40794;BME280;26502;51.886;15.604;2023-04-01T16:30:45;99405.17;;;9.71;80.01
40794;BME280;26502;51.886;15.604;2023-04-01T16:35:57;99412.92;;;9.68;80.09
40794;BME280;26502;51.886;15.604;2023-04-01T16:41:14;99421.11;;;9.67;80.10
40794;BME280;26502;51.886;15.604;2023-04-01T16:46:42;99431.25;;;9.63;80.08
40794;BME280;26502;51.886;15.604;2023-04-01T16:51:55;99438.12;;;9.56;80.04
40794;BME280;26502;51.886;15.604;2023-04-01T16:57:16;99444.82;;;9.54;80.12
40794;BME280;26502;51.886;15.604;2023-04-01T17:02:25;99450.69;;;9.41;80.06
40794;BME280;26502;51.886;15.604;2023-04-01T17:07:43;99455.11;;;9.34;80.32
40794;BME280;26502;51.886;15.604;2023-04-01T17:12:52;99460.73;;;9.28;80.14
40794;BME280;26502;51.886;15.604;2023-04-01T17:18:08;99469.27;;;9.19;80.24
40794;BME280;26502;51.886;15.604;2023-04-01T17:23:26;99480.51;;;9.17;80.25
40794;BME280;26502;51.886;15.604;2023-04-01T17:28:41;99483.89;;;9.17;80.29
40794;BME280;26502;51.886;15.604;2023-04-01T17:34:00;99491.92;;;9.12;80.45
40794;BME280;26502;51.886;15.604;2023-04-01T17:39:21;99500.34;;;9.14;80.45
40794;BME280;26502;51.886;15.604;2023-04-01T17:44:47;99510.92;;;9.19;80.48
40794;BME280;26502;51.886;15.604;2023-04-01T17:55:50;99527.02;;;9.07;80.41
40794;BME280;26502;51.886;15.604;2023-04-01T18:01:09;99536.98;;;8.98;80.44
40794;BME280;26502;51.886;15.604;2023-04-01T18:06:21;99551.05;;;8.88;80.42
40794;BME280;26502;51.886;15.604;2023-04-01T18:11:42;99558.71;;;8.83;80.48
40794;BME280;26502;51.886;15.604;2023-04-01T18:17:12;99570.50;;;8.68;80.29
40794;BME280;26502;51.886;15.604;2023-04-01T18:22:28;99577.98;;;8.63;80.55
40794;BME280;26502;51.886;15.604;2023-04-01T18:27:39;99583.85;;;8.62;80.61
40794;BME280;26502;51.886;15.604;2023-04-01T18:32:50;99597.05;;;8.64;80.63
40794;BME280;26502;51.886;15.604;2023-04-01T18:38:00;99605.88;;;8.60;80.55
40794;BME280;26502;51.886;15.604;2023-04-01T18:43:22;99618.48;;;8.55;80.40
40794;BME280;26502;51.886;15.604;2023-04-01T18:48:43;99624.36;;;8.50;80.72
40794;BME280;26502;51.886;15.604;2023-04-01T18:53:58;99633.21;;;8.49;80.51
40794;BME280;26502;51.886;15.604;2023-04-01T18:59:11;99638.10;;;8.41;80.43
40794;BME280;26502;51.886;15.604;2023-04-01T19:04:30;99647.27;;;8.42;80.62
40794;BME280;26502;51.886;15.604;2023-04-01T19:09:47;99655.25;;;8.37;80.45
40794;BME280;26502;51.886;15.604;2023-04-01T19:15:00;99656.20;;;8.27;80.40
40794;BME280;26502;51.886;15.604;2023-04-01T19:20:18;99664.73;;;8.07;80.26
40794;BME280;26502;51.886;15.604;2023-04-01T19:25:35;99669.65;;;7.89;80.30
40794;BME280;26502;51.886;15.604;2023-04-01T19:30:53;99681.48;;;7.75;80.47
40794;BME280;26502;51.886;15.604;2023-04-01T19:36:07;99692.21;;;7.67;80.33
40794;BME280;26502;51.886;15.604;2023-04-01T19:41:29;99703.20;;;7.56;80.45
40794;BME280;26502;51.886;15.604;2023-04-01T19:46:41;99712.04;;;7.46;80.45
40794;BME280;26502;51.886;15.604;2023-04-01T19:51:55;99719.81;;;7.35;80.49
40794;BME280;26502;51.886;15.604;2023-04-01T19:57:09;99729.30;;;7.32;80.66
40794;BME280;26502;51.886;15.604;2023-04-01T20:02:35;99738.23;;;7.24;80.47
40794;BME280;26502;51.886;15.604;2023-04-01T20:07:49;99747.35;;;7.04;80.31
40794;BME280;26502;51.886;15.604;2023-04-01T20:13:02;99754.47;;;6.86;80.35
40794;BME280;26502;51.886;15.604;2023-04-01T20:18:18;99761.00;;;6.75;80.49
40794;BME280;26502;51.886;15.604;2023-04-01T20:23:38;99770.34;;;6.64;80.50
40794;BME280;26502;51.886;15.604;2023-04-01T20:28:48;99779.54;;;6.57;80.53
40794;BME280;26502;51.886;15.604;2023-04-01T20:34:29;99785.21;;;6.50;80.59
40794;BME280;26502;51.886;15.604;2023-04-01T20:40:12;99792.06;;;6.51;80.71
40794;BME280;26502;51.886;15.604;2023-04-01T20:45:35;99801.91;;;6.52;80.68
40794;BME280;26502;51.886;15.604;2023-04-01T20:50:49;99808.47;;;6.51;80.64
40794;BME280;26502;51.886;15.604;2023-04-01T20:56:16;99815.50;;;6.46;80.57
40794;BME280;26502;51.886;15.604;2023-04-01T21:01:32;99822.26;;;6.32;80.40
40794;BME280;26502;51.886;15.604;2023-04-01T21:12:26;99837.15;;;6.16;80.62
40794;BME280;26502;51.886;15.604;2023-04-01T21:17:44;99850.13;;;6.19;80.76
40794;BME280;26502;51.886;15.604;2023-04-01T21:23:01;99853.54;;;6.17;80.69
40794;BME280;26502;51.886;15.604;2023-04-01T21:28:23;99873.39;;;6.06;80.53
40794;BME280;26502;51.886;15.604;2023-04-01T21:33:42;99880.80;;;5.98;80.54
40794;BME280;26502;51.886;15.604;2023-04-01T21:39:00;99890.63;;;5.92;80.55
40794;BME280;26502;51.886;15.604;2023-04-01T21:49:55;99902.58;;;5.73;80.49
40794;BME280;26502;51.886;15.604;2023-04-01T22:00:54;99918.38;;;5.68;80.47
40794;BME280;26502;51.886;15.604;2023-04-01T22:06:24;99923.88;;;5.59;80.34
40794;BME280;26502;51.886;15.604;2023-04-01T22:11:42;99926.83;;;5.46;80.38
40794;BME280;26502;51.886;15.604;2023-04-01T22:16:57;99932.23;;;5.41;80.50
40794;BME280;26502;51.886;15.604;2023-04-01T22:22:15;99939.57;;;5.36;80.57
40794;BME280;26502;51.886;15.604;2023-04-01T22:27:26;99944.85;;;5.28;80.55
40794;BME280;26502;51.886;15.604;2023-04-01T22:32:42;99958.58;;;5.21;80.55
40794;BME280;26502;51.886;15.604;2023-04-01T22:37:54;99961.01;;;5.14;80.54
40794;BME280;26502;51.886;15.604;2023-04-01T22:43:08;99970.27;;;5.09;80.51
40794;BME280;26502;51.886;15.604;2023-04-01T22:48:20;99972.82;;;5.05;80.62
40794;BME280;26502;51.886;15.604;2023-04-01T22:53:42;99979.48;;;5.07;80.81
40794;BME280;26502;51.886;15.604;2023-04-01T22:58:56;99984.20;;;5.08;80.75
40794;BME280;26502;51.886;15.604;2023-04-01T23:04:07;99990.70;;;5.08;80.80
40794;BME280;26502;51.886;15.604;2023-04-01T23:09:17;99998.92;;;5.02;80.74
40794;BME280;26502;51.886;15.604;2023-04-01T23:14:41;100005.35;;;4.98;80.76
40794;BME280;26502;51.886;15.604;2023-04-01T23:19:55;100015.38;;;4.89;80.65
40794;BME280;26502;51.886;15.604;2023-04-01T23:25:17;100022.44;;;4.87;80.84
40794;BME280;26502;51.886;15.604;2023-04-01T23:30:47;100028.19;;;4.91;80.91
40794;BME280;26502;51.886;15.604;2023-04-01T23:35:56;100036.51;;;4.88;80.80
40794;BME280;26502;51.886;15.604;2023-04-01T23:41:16;100042.05;;;4.83;80.77
40794;BME280;26502;51.886;15.604;2023-04-01T23:46:26;100047.81;;;4.76;80.58
40794;BME280;26502;51.886;15.604;2023-04-01T23:51:38;100057.24;;;4.70;80.64
40794;BME280;26502;51.886;15.604;2023-04-01T23:56:48;100065.64;;;4.63;80.61
